createdAt,value
2024-03-03T00:02:08.562Z,100.00
2024-03-03T00:04:55.534Z,100.00
2024-03-03T00:07:35.892Z,100.00
2024-03-03T00:10:22.595Z,100.00
2024-03-03T00:13:02.956Z,100.00
2024-03-03T00:15:49.549Z,100.00
2024-03-03T00:18:29.846Z,100.00
2024-03-03T00:21:16.563Z,100.00
2024-03-03T00:23:56.896Z,100.00
2024-03-03T00:26:43.499Z,100.00
2024-03-03T00:29:24.359Z,100.00
2024-03-03T00:32:11.502Z,100.00
2024-03-03T00:34:51.881Z,100.00
2024-03-03T00:37:38.524Z,100.00
2024-03-03T00:40:25.518Z,100.00
2024-03-03T00:43:05.675Z,100.00
2024-03-03T00:45:52.538Z,100.00
2024-03-03T00:48:32.590Z,100.00
2024-03-03T00:51:19.465Z,100.00
2024-03-03T00:53:59.513Z,100.00
2024-03-03T00:56:47.458Z,100.00
2024-03-03T00:59:27.631Z,100.00
2024-03-03T01:02:14.498Z,100.00
2024-03-03T01:05:09.466Z,100.00
2024-03-03T01:07:56.488Z,100.00
2024-03-03T01:10:36.562Z,100.00
2024-03-03T01:13:23.537Z,100.00
2024-03-03T01:16:03.530Z,100.00
2024-03-03T01:18:50.451Z,100.00
2024-03-03T01:21:37.529Z,100.00
2024-03-03T01:24:24.436Z,100.00
2024-03-03T01:27:11.401Z,100.00
2024-03-03T01:29:51.881Z,100.00
2024-03-03T01:32:38.406Z,100.00
2024-03-03T01:35:18.788Z,100.00
2024-03-03T01:38:05.393Z,100.00
2024-03-03T01:40:58.408Z,100.00
2024-03-03T01:43:38.550Z,100.00
2024-03-03T01:46:25.480Z,100.00
2024-03-03T01:49:12.461Z,100.00
2024-03-03T01:51:53.431Z,100.00
2024-03-03T01:54:40.366Z,100.00
2024-03-03T01:57:29.435Z,100.00
2024-03-03T02:00:22.297Z,100.00
2024-03-03T02:03:08.512Z,100.00
2024-03-03T02:05:55.427Z,100.00
2024-03-03T02:08:43.428Z,100.00
2024-03-03T02:11:24.345Z,100.00
2024-03-03T02:14:11.456Z,100.00
2024-03-03T02:16:51.337Z,100.00
2024-03-03T02:19:44.477Z,100.00
2024-03-03T02:22:31.375Z,100.00
2024-03-03T02:25:11.795Z,100.00
2024-03-03T02:27:58.377Z,100.00
2024-03-03T02:30:38.731Z,100.00
2024-03-03T02:33:25.378Z,100.00
2024-03-03T02:36:06.057Z,100.00
2024-03-03T02:38:58.464Z,100.00
2024-03-03T02:41:38.682Z,100.00
2024-03-03T02:44:25.310Z,100.00
2024-03-03T02:47:12.319Z,100.00
2024-03-03T02:49:59.295Z,100.00
2024-03-03T02:52:39.668Z,100.00
2024-03-03T02:55:26.399Z,100.00
2024-03-03T02:58:13.333Z,100.00
2024-03-03T03:01:00.303Z,100.00
2024-03-03T03:03:47.341Z,100.00
2024-03-03T03:06:34.389Z,100.00
2024-03-03T03:09:14.235Z,100.00
2024-03-03T03:11:54.729Z,100.00
2024-03-03T03:14:41.298Z,100.00
2024-03-03T03:17:21.962Z,100.00
2024-03-03T03:20:09.273Z,100.00
2024-03-03T03:22:49.578Z,100.00
2024-03-03T03:25:36.295Z,100.00
2024-03-03T03:28:16.722Z,100.00
2024-03-03T03:31:03.308Z,100.00
2024-03-03T03:33:43.865Z,100.00
2024-03-03T03:36:30.234Z,100.00
2024-03-03T03:39:17.351Z,100.00
2024-03-03T03:42:05.228Z,100.00
2024-03-03T03:44:45.581Z,100.00
2024-03-03T03:47:32.279Z,100.00
2024-03-03T04:03:52.407Z,100.00
2024-03-03T04:06:32.756Z,100.00
2024-03-03T04:09:20.352Z,100.00
2024-03-03T04:12:00.796Z,100.00
2024-03-03T04:14:48.384Z,100.00
2024-03-03T04:17:35.478Z,100.00
2024-03-03T04:20:16.343Z,100.00
2024-03-03T04:22:56.739Z,100.00
2024-03-03T04:25:43.331Z,100.00
2024-03-03T04:28:30.338Z,100.00
2024-03-03T04:31:20.425Z,100.00
2024-03-03T04:34:07.427Z,100.00
2024-03-03T04:36:58.388Z,100.00
2024-03-03T04:39:45.379Z,100.00
2024-03-03T04:42:32.313Z,100.00
2024-03-03T04:45:12.787Z,100.00
2024-03-03T04:47:59.354Z,100.00
2024-03-03T04:50:39.712Z,100.00
2024-03-03T04:53:26.289Z,100.00
2024-03-03T04:56:06.883Z,100.00
2024-03-03T04:58:53.302Z,100.00
2024-03-03T05:01:34.636Z,100.00
2024-03-03T05:04:21.307Z,100.00
2024-03-03T05:07:01.727Z,100.00
2024-03-03T05:09:48.303Z,100.00
2024-03-03T05:12:35.290Z,100.00
2024-03-03T05:15:22.247Z,100.00
2024-03-03T05:18:09.380Z,100.00
2024-03-03T05:20:49.242Z,100.00
2024-03-03T05:23:29.668Z,100.00
2024-03-03T05:26:16.293Z,100.00
2024-03-03T05:28:56.580Z,100.00
2024-03-03T05:31:49.301Z,100.00
2024-03-03T05:34:29.764Z,100.00
2024-03-03T05:37:16.267Z,100.00
2024-03-03T05:39:56.626Z,100.00
2024-03-03T05:42:43.276Z,100.00
2024-03-03T05:45:23.622Z,100.00
2024-03-03T05:48:10.224Z,100.00
2024-03-03T05:50:57.243Z,100.00
2024-03-03T05:53:37.315Z,100.00
2024-03-03T05:56:24.169Z,100.00
2024-03-03T05:59:11.199Z,100.00
2024-03-03T06:01:59.295Z,100.00
2024-03-03T06:04:46.198Z,98.63
2024-03-03T06:07:26.631Z,97.72
2024-03-03T06:10:13.280Z,96.86
2024-03-03T06:13:00.258Z,95.94
2024-03-03T06:15:40.390Z,94.01
2024-03-03T06:18:27.199Z,91.64
2024-03-03T06:21:08.310Z,92.23
2024-03-03T06:23:55.183Z,87.88
2024-03-03T06:26:43.204Z,86.54
2024-03-03T06:29:23.589Z,84.48
2024-03-03T06:32:10.168Z,82.13
2024-03-03T06:34:58.136Z,80.43
2024-03-03T06:37:38.322Z,80.28
2024-03-03T06:40:25.277Z,75.06
2024-03-03T06:43:05.335Z,68.60
2024-03-03T06:45:52.226Z,66.58
2024-03-03T06:48:35.198Z,69.41
2024-03-03T06:51:22.156Z,72.58
2024-03-03T06:54:02.212Z,69.83
2024-03-03T06:56:50.158Z,68.57
2024-03-03T06:59:31.383Z,70.27
2024-03-03T07:02:18.134Z,73.58
2024-03-03T07:05:05.168Z,74.19
2024-03-03T07:07:52.129Z,73.87
2024-03-03T07:10:32.965Z,76.65
2024-03-03T07:13:21.257Z,78.11
2024-03-03T07:16:01.974Z,81.50
2024-03-03T07:18:49.124Z,82.74
2024-03-03T07:21:29.224Z,80.81
2024-03-03T07:24:16.094Z,79.63
2024-03-03T07:27:03.387Z,80.11
2024-03-03T07:29:52.109Z,77.07
2024-03-03T07:32:39.298Z,76.71
2024-03-03T07:35:27.109Z,77.29
2024-03-03T07:38:07.113Z,78.06
2024-03-03T07:40:47.507Z,77.80
2024-03-03T07:43:36.110Z,76.54
2024-03-03T07:46:23.278Z,72.92
2024-03-03T07:49:06.421Z,72.37
2024-03-03T07:51:53.461Z,75.19
2024-03-03T07:54:40.241Z,76.78
2024-03-03T07:57:28.200Z,76.03
2024-03-03T08:00:08.187Z,75.99
2024-03-03T08:02:55.252Z,78.78
2024-03-03T08:05:44.940Z,80.18
2024-03-03T08:08:27.564Z,76.63
2024-03-03T08:11:14.215Z,73.95
2024-03-03T08:13:54.464Z,73.92
2024-03-03T08:16:42.005Z,70.80
2024-03-03T08:19:23.105Z,70.24
2024-03-03T08:22:10.206Z,70.03
2024-03-03T08:24:57.052Z,76.25
2024-03-03T08:27:37.158Z,76.75
2024-03-03T08:30:24.020Z,74.94
2024-03-03T08:33:04.685Z,77.75
2024-03-03T08:35:52.036Z,75.50
2024-03-03T08:38:32.177Z,76.05
2024-03-03T08:41:18.988Z,76.73
2024-03-03T08:43:59.283Z,74.11
2024-03-03T08:46:45.993Z,75.14
2024-03-03T08:49:26.403Z,69.91
2024-03-03T08:52:15.982Z,68.17
2024-03-03T08:55:03.047Z,66.41
2024-03-03T08:57:50.724Z,67.90
2024-03-03T09:00:30.957Z,65.56
2024-03-03T09:03:25.000Z,69.83
2024-03-03T09:06:05.644Z,66.14
2024-03-03T09:08:51.968Z,65.62
2024-03-03T09:11:41.959Z,64.99
2024-03-03T09:14:22.062Z,64.46
2024-03-03T09:17:08.919Z,61.20
2024-03-03T09:19:56.011Z,54.93
2024-03-03T09:22:37.447Z,61.09
2024-03-03T09:25:25.075Z,64.06
2024-03-03T09:28:05.405Z,60.29
2024-03-03T09:30:51.930Z,66.18
2024-03-03T09:33:32.411Z,64.52
2024-03-03T09:36:19.879Z,57.93
2024-03-03T09:39:00.282Z,52.68
2024-03-03T09:41:46.933Z,48.86
2024-03-03T09:44:31.053Z,52.38
2024-03-03T09:47:18.951Z,48.62
2024-03-03T09:50:00.328Z,43.74
2024-03-03T09:52:47.968Z,49.22
2024-03-03T09:55:37.911Z,48.64
2024-03-03T09:58:18.067Z,47.73
2024-03-03T10:01:14.963Z,52.27
2024-03-03T10:04:02.954Z,55.69
2024-03-03T10:06:45.116Z,57.27
2024-03-03T10:09:33.904Z,56.85
2024-03-03T10:12:27.921Z,57.78
2024-03-03T10:15:16.925Z,59.08
2024-03-03T10:17:57.284Z,60.11
2024-03-03T10:20:43.911Z,59.92
2024-03-03T10:23:38.883Z,59.66
2024-03-03T10:26:19.244Z,59.20
2024-03-03T10:29:23.821Z,60.84
2024-03-03T10:32:09.903Z,63.18
2024-03-03T10:35:10.876Z,64.13
2024-03-03T10:38:00.401Z,65.52
2024-03-03T10:40:46.913Z,68.88
2024-03-03T10:43:27.296Z,68.95
2024-03-03T10:46:13.880Z,70.71
2024-03-03T10:49:02.853Z,71.61
2024-03-03T10:51:49.891Z,73.52
2024-03-03T10:54:36.801Z,73.32
2024-03-03T10:57:27.875Z,70.51
2024-03-03T11:00:17.558Z,65.98
2024-03-03T11:03:05.821Z,64.32
2024-03-03T11:05:48.088Z,66.92
2024-03-03T11:08:36.016Z,68.47
2024-03-03T11:11:30.186Z,67.42
2024-03-03T11:14:24.809Z,64.51
2024-03-03T11:17:09.719Z,64.43
2024-03-03T11:20:00.792Z,60.81
2024-03-03T11:23:04.837Z,58.85
2024-03-03T11:26:38.044Z,61.51
2024-03-03T11:29:28.835Z,62.47
2024-03-03T11:32:16.833Z,63.62
2024-03-03T11:34:59.610Z,60.73
2024-03-03T11:37:46.780Z,62.47
2024-03-03T11:40:35.846Z,62.87
2024-03-03T11:43:15.934Z,61.75
2024-03-03T11:46:04.842Z,58.32
2024-03-03T11:48:48.992Z,59.23
2024-03-03T11:51:38.756Z,60.08
2024-03-03T11:54:27.773Z,54.76
2024-03-03T11:57:12.535Z,56.62
2024-03-03T12:00:02.719Z,58.67
2024-03-03T12:02:57.787Z,62.72
2024-03-03T12:05:38.396Z,65.92
2024-03-03T12:08:30.785Z,67.04
2024-03-03T12:11:15.180Z,65.99
2024-03-03T12:14:01.817Z,64.45
2024-03-03T12:16:42.131Z,70.30
2024-03-03T12:19:28.779Z,75.19
2024-03-03T12:22:16.775Z,77.02
2024-03-03T12:25:09.718Z,77.14
2024-03-03T12:27:55.299Z,82.57
2024-03-03T12:30:49.726Z,81.76
2024-03-03T12:33:30.055Z,81.85
2024-03-03T12:36:16.724Z,80.71
2024-03-03T12:38:57.105Z,80.46
2024-03-03T12:41:44.692Z,81.29
2024-03-03T12:44:26.317Z,82.13
2024-03-03T12:47:12.684Z,84.99
2024-03-03T12:49:53.060Z,86.50
2024-03-03T12:52:39.672Z,87.30
2024-03-03T12:55:26.297Z,85.69
2024-03-03T12:58:13.642Z,85.29
2024-03-03T13:00:54.793Z,86.57
2024-03-03T13:03:44.742Z,84.36
2024-03-03T13:06:32.628Z,84.33
2024-03-03T13:09:21.641Z,84.35
2024-03-03T13:12:08.648Z,85.17
2024-03-03T13:14:55.707Z,85.59
2024-03-03T13:17:42.686Z,86.07
2024-03-03T13:20:35.157Z,88.22
2024-03-03T13:23:26.650Z,88.08
2024-03-03T13:26:06.831Z,89.38
2024-03-03T13:28:56.655Z,89.77
2024-03-03T13:31:36.761Z,89.79
2024-03-03T13:34:23.727Z,90.67
2024-03-03T13:37:05.087Z,92.31
2024-03-03T13:39:51.713Z,93.72
2024-03-03T13:42:31.679Z,94.63
2024-03-03T13:45:18.696Z,98.56
2024-03-03T13:47:58.737Z,98.78
2024-03-03T13:50:47.704Z,100.00
2024-03-03T13:53:27.711Z,99.42
2024-03-03T13:56:14.594Z,99.11
2024-03-03T13:58:54.677Z,97.98
2024-03-03T14:01:41.677Z,97.24
2024-03-03T14:04:28.834Z,98.50
2024-03-03T14:07:10.627Z,97.03
2024-03-03T14:09:50.976Z,97.53
2024-03-03T14:12:37.554Z,99.23
2024-03-03T14:15:24.552Z,100.00
2024-03-03T14:18:05.117Z,100.00
2024-03-03T14:20:51.558Z,100.00
2024-03-03T14:23:31.652Z,100.00
2024-03-03T14:26:18.559Z,100.00
2024-03-03T14:28:58.724Z,100.00
2024-03-03T14:31:45.581Z,100.00
2024-03-03T14:34:32.613Z,100.00
2024-03-03T14:37:22.610Z,100.00
2024-03-03T14:40:03.343Z,100.00
2024-03-03T14:42:50.583Z,100.00
2024-03-03T14:45:33.664Z,100.00
2024-03-03T14:48:20.547Z,100.00
2024-03-03T14:51:00.647Z,100.00
2024-03-03T14:53:47.529Z,100.00
2024-03-03T14:56:27.624Z,100.00
2024-03-03T14:59:14.566Z,100.00
2024-03-03T15:01:54.824Z,100.00
2024-03-03T15:04:41.590Z,100.00
2024-03-03T15:07:29.505Z,100.00
2024-03-03T15:10:16.588Z,100.00
2024-03-03T15:12:56.769Z,100.00
2024-03-03T15:15:44.458Z,100.00
2024-03-03T15:18:25.094Z,100.00
2024-03-03T15:21:13.483Z,100.00
2024-03-03T15:23:53.918Z,100.00
2024-03-03T15:26:40.492Z,100.00
2024-03-03T15:29:20.969Z,100.00
2024-03-03T15:32:07.453Z,100.00
2024-03-03T15:34:47.577Z,100.00
2024-03-03T15:37:34.533Z,100.00
2024-03-03T15:40:16.073Z,100.00
2024-03-03T15:43:02.596Z,100.00
2024-03-03T15:45:44.170Z,100.00
2024-03-03T15:48:31.415Z,100.00
2024-03-03T15:51:11.578Z,100.00
2024-03-03T16:05:47.553Z,100.00
2024-03-03T16:08:34.698Z,100.00
2024-03-03T16:11:21.609Z,100.00
2024-03-03T16:14:20.894Z,100.00
2024-03-03T16:17:08.586Z,100.00
2024-03-03T16:19:49.740Z,100.00
2024-03-03T16:22:36.613Z,100.00
2024-03-03T16:25:16.894Z,100.00
2024-03-03T16:28:04.597Z,100.00
2024-03-03T16:30:51.652Z,100.00
2024-03-03T16:33:31.553Z,100.00
2024-03-03T16:36:20.358Z,100.00
2024-03-03T16:39:00.513Z,100.00
2024-03-03T16:41:47.506Z,100.00
2024-03-03T16:44:34.560Z,100.00
2024-03-03T16:47:14.957Z,100.00
2024-03-03T16:50:01.552Z,100.00
2024-03-03T16:52:48.497Z,100.00
2024-03-03T16:55:28.973Z,100.00
2024-03-03T16:58:16.516Z,100.00
2024-03-03T17:01:06.005Z,100.00
2024-03-03T17:04:00.676Z,100.00
2024-03-03T17:06:41.854Z,100.00
2024-03-03T17:09:28.442Z,100.00
2024-03-03T17:12:15.566Z,100.00
2024-03-03T17:14:56.025Z,100.00
2024-03-03T17:17:42.498Z,100.00
2024-03-03T17:20:22.527Z,100.00
2024-03-03T17:23:09.473Z,100.00
2024-03-03T17:25:49.943Z,100.00
2024-03-03T17:28:36.507Z,100.00
2024-03-03T17:31:23.516Z,100.00
2024-03-03T17:34:03.594Z,100.00
2024-03-03T17:36:50.571Z,100.00
2024-03-03T17:39:30.583Z,100.00
2024-03-03T17:42:17.404Z,100.00
2024-03-03T17:44:57.509Z,100.00
2024-03-03T17:47:44.491Z,100.00
2024-03-03T17:50:24.719Z,100.00
2024-03-03T17:53:14.206Z,100.00
2024-03-03T17:55:55.049Z,100.00
2024-03-03T17:58:41.498Z,100.00
2024-03-03T18:01:21.673Z,100.00
2024-03-03T18:04:08.461Z,100.00
2024-03-03T18:06:48.571Z,100.00
2024-03-03T18:09:35.362Z,100.00
2024-03-03T18:12:15.529Z,100.00
2024-03-03T18:15:02.379Z,100.00
2024-03-03T18:17:44.593Z,100.00
2024-03-03T18:20:31.424Z,100.00
2024-03-03T18:23:11.509Z,100.00
2024-03-03T18:25:58.349Z,100.00
2024-03-03T18:28:46.352Z,100.00
2024-03-03T18:31:26.833Z,100.00
2024-03-03T18:34:13.450Z,100.00
2024-03-03T18:36:55.557Z,100.00
2024-03-03T18:39:42.336Z,100.00
2024-03-03T18:42:29.373Z,100.00
2024-03-03T18:45:16.384Z,100.00
2024-03-03T18:48:03.445Z,100.00
2024-03-03T18:50:50.364Z,100.00
2024-03-03T18:53:30.740Z,100.00
2024-03-03T18:56:17.328Z,100.00
2024-03-03T18:59:04.382Z,100.00
2024-03-03T19:01:44.551Z,100.00
2024-03-03T19:04:32.373Z,100.00
2024-03-03T19:07:19.327Z,100.00
2024-03-03T19:10:06.515Z,100.00
2024-03-03T19:12:46.354Z,100.00
2024-03-03T19:15:26.728Z,100.00
2024-03-03T19:18:13.325Z,100.00
2024-03-03T19:21:00.862Z,100.00
2024-03-03T19:23:40.354Z,100.00
2024-03-03T19:26:27.446Z,100.00
2024-03-03T19:29:07.337Z,100.00
2024-03-03T19:31:47.700Z,100.00
2024-03-03T19:34:34.737Z,100.00
2024-03-03T19:37:22.392Z,100.00
2024-03-03T19:40:03.701Z,100.00
2024-03-03T19:42:51.668Z,100.00
2024-03-03T19:45:31.404Z,100.00
2024-03-03T19:48:18.297Z,100.00
2024-03-03T19:51:05.484Z,100.00
2024-03-03T19:53:52.333Z,100.00
2024-03-03T19:56:32.391Z,100.00
2024-03-03T19:59:20.242Z,100.00
2024-03-03T20:02:08.132Z,100.00
2024-03-03T20:05:05.785Z,100.00
2024-03-03T20:07:47.484Z,100.00
2024-03-03T20:10:34.503Z,100.00
2024-03-03T20:13:21.377Z,100.00
2024-03-03T20:16:02.290Z,100.00
2024-03-03T20:18:43.436Z,100.00
2024-03-03T20:21:30.202Z,100.00
2024-03-03T20:24:17.952Z,100.00
2024-03-03T20:26:58.369Z,100.00
2024-03-03T20:29:38.640Z,100.00
2024-03-03T20:32:25.192Z,100.00
2024-03-03T20:35:13.254Z,100.00
2024-03-03T20:37:53.338Z,100.00
2024-03-03T20:40:40.250Z,100.00
2024-03-03T20:43:20.420Z,100.00
2024-03-03T20:46:07.284Z,100.00
2024-03-03T20:48:47.256Z,100.00
2024-03-03T20:51:34.152Z,100.00
2024-03-03T20:54:23.159Z,100.00
2024-03-03T20:57:16.186Z,100.00
2024-03-03T21:00:03.152Z,100.00
2024-03-03T21:02:50.342Z,100.00
2024-03-03T21:05:37.166Z,100.00
2024-03-03T21:08:24.165Z,100.00
2024-03-03T21:11:11.293Z,100.00
2024-03-03T21:13:52.125Z,100.00
2024-03-03T21:16:41.191Z,100.00
2024-03-03T21:19:21.279Z,100.00
2024-03-03T21:22:09.229Z,100.00
2024-03-03T21:24:49.305Z,100.00
2024-03-03T21:27:36.150Z,100.00
2024-03-03T21:30:16.274Z,100.00
2024-03-03T21:33:03.175Z,100.00
2024-03-03T21:35:50.130Z,100.00
2024-03-03T21:38:37.181Z,100.00
2024-03-03T21:41:17.087Z,100.00
2024-03-03T21:43:57.517Z,100.00
2024-03-03T21:46:44.274Z,100.00
2024-03-03T21:49:24.536Z,100.00
2024-03-03T21:52:11.144Z,100.00
2024-03-03T21:54:58.156Z,100.00
2024-03-03T21:57:38.071Z,100.00
2024-03-03T22:00:25.106Z,100.00
2024-03-03T22:03:05.148Z,100.00
2024-03-03T22:05:52.155Z,100.00
2024-03-03T22:08:39.041Z,100.00
2024-03-03T22:11:26.277Z,100.00
2024-03-03T22:14:06.034Z,100.00
2024-03-03T22:16:47.291Z,100.00
2024-03-03T22:19:34.217Z,100.00
2024-03-03T22:22:14.617Z,100.00
2024-03-03T22:25:03.149Z,100.00
2024-03-03T22:27:50.065Z,100.00
2024-03-03T22:30:30.169Z,100.00
2024-03-03T22:33:17.158Z,100.00
2024-03-03T22:35:57.172Z,100.00
2024-03-03T22:38:44.049Z,100.00
2024-03-03T22:41:24.091Z,100.00
2024-03-03T22:44:11.005Z,100.00
2024-03-03T22:46:53.854Z,100.00
2024-03-03T22:49:42.076Z,100.00
2024-03-03T22:52:22.144Z,100.00
2024-03-03T22:55:09.135Z,100.00
2024-03-03T22:57:56.024Z,100.00
2024-03-03T23:00:46.026Z,100.00
2024-03-03T23:03:26.070Z,100.00
2024-03-03T23:06:15.995Z,100.00
2024-03-03T23:09:02.990Z,100.00
2024-03-03T23:11:50.047Z,100.00
2024-03-03T23:14:30.093Z,100.00
2024-03-03T23:17:16.973Z,100.00
2024-03-03T23:19:57.037Z,100.00
2024-03-03T23:22:43.972Z,100.00
2024-03-03T23:25:24.224Z,100.00
2024-03-03T23:28:11.039Z,100.00
2024-03-03T23:30:51.121Z,100.00
2024-03-03T23:33:38.001Z,100.00
2024-03-03T23:36:21.076Z,100.00
2024-03-03T23:39:07.972Z,100.00
2024-03-03T23:41:48.003Z,100.00
2024-03-03T23:44:35.005Z,100.00
2024-03-03T23:47:22.994Z,100.00
2024-03-03T23:50:11.982Z,100.00
2024-03-03T23:52:54.067Z,100.00
2024-03-03T23:55:41.964Z,100.00
2024-03-03T23:58:22.108Z,100.00
